createdAt,value
2022-09-26T00:03:31.998Z,2.28
2022-09-26T00:07:33.521Z,4.78
2022-09-26T00:11:35.113Z,2.85
2022-09-26T00:15:36.676Z,2.15
2022-09-26T00:19:38.277Z,2.80
2022-09-26T00:23:41.789Z,3.35
2022-09-26T00:27:43.586Z,2.08
2022-09-26T00:31:46.085Z,4.57
2022-09-26T00:35:51.789Z,3.63
2022-09-26T00:39:53.341Z,4.05
2022-09-26T00:43:57.140Z,2.83
2022-09-26T00:48:05.307Z,2.55
2022-09-26T00:52:26.314Z,1.95
2022-09-26T00:56:33.464Z,2.80
2022-09-26T01:00:35.341Z,1.08
2022-09-26T01:04:39.838Z,4.05
2022-09-26T01:08:48.686Z,2.75
2022-09-26T01:12:52.228Z,1.73
2022-09-26T01:16:56.297Z,1.27
2022-09-26T01:21:13.925Z,1.98
2022-09-26T01:25:38.835Z,1.80
2022-09-26T01:30:07.553Z,1.40
2022-09-26T01:34:16.732Z,1.52
2022-09-26T01:38:36.880Z,3.53
2022-09-26T01:43:05.938Z,1.17
2022-09-26T01:47:21.089Z,3.72
2022-09-26T01:51:37.292Z,1.42
2022-09-26T01:55:43.480Z,0.80
2022-09-26T01:59:53.096Z,1.05
2022-09-26T02:04:05.069Z,3.47
2022-09-26T02:08:14.304Z,2.10
2022-09-26T02:12:26.106Z,1.67
2022-09-26T02:16:37.631Z,1.95
2022-09-26T02:20:43.849Z,1.45
2022-09-26T02:24:45.824Z,3.13
2022-09-26T02:28:47.551Z,1.23
2022-09-26T02:32:49.901Z,3.35
2022-09-26T02:36:55.814Z,0.63
2022-09-26T02:41:28.992Z,1.73
2022-09-26T02:45:45.446Z,1.25
2022-09-26T02:50:01.787Z,1.38
2022-09-26T02:58:42.341Z,1.23
2022-09-26T03:03:05.895Z,1.02
2022-09-26T03:07:13.791Z,0.63
2022-09-26T03:11:24.643Z,1.45
2022-09-26T03:15:27.528Z,3.17
2022-09-26T03:19:35.020Z,1.75
2022-09-26T03:23:36.979Z,0.93
2022-09-26T03:27:43.631Z,0.82
2022-09-26T03:31:45.747Z,0.80
2022-09-26T03:35:47.485Z,1.05
2022-09-26T03:39:49.347Z,0.95
2022-09-26T03:43:50.975Z,0.73
2022-09-26T03:47:57.311Z,3.70
2022-09-26T03:51:58.951Z,1.00
2022-09-26T03:56:09.229Z,0.50
2022-09-26T04:00:11.946Z,4.03
2022-09-26T04:04:16.487Z,5.43
2022-09-26T04:08:18.018Z,2.05
2022-09-26T04:12:22.728Z,2.35
2022-09-26T04:16:36.147Z,2.08
2022-09-26T04:20:37.972Z,2.47
2022-09-26T04:24:39.546Z,0.60
2022-09-26T04:28:41.821Z,1.27
2022-09-26T04:32:43.367Z,1.27
2022-09-26T04:36:44.919Z,0.60
2022-09-26T04:40:46.488Z,3.22
2022-09-26T04:44:48.299Z,1.23
2022-09-26T04:49:07.093Z,2.45
2022-09-26T04:53:08.978Z,0.55
2022-09-26T04:57:10.578Z,1.50
2022-09-26T05:01:17.968Z,0.60
2022-09-26T05:05:20.022Z,0.63
2022-09-26T05:09:21.571Z,0.90
2022-09-26T05:13:24.318Z,1.13
2022-09-26T05:17:26.973Z,2.42
2022-09-26T05:21:28.583Z,3.33
2022-09-26T05:25:55.415Z,2.90
2022-09-26T05:29:56.994Z,5.82
2022-09-26T05:33:58.602Z,3.83
2022-09-26T05:38:01.532Z,3.47
2022-09-26T05:42:06.127Z,5.05
2022-09-26T05:46:23.415Z,6.28
2022-09-26T05:50:25.130Z,4.13
2022-09-26T05:54:26.707Z,0.80
2022-09-26T05:58:32.147Z,1.05
2022-09-26T06:02:34.835Z,1.73
2022-09-26T06:06:36.636Z,4.20
2022-09-26T06:10:41.264Z,2.45
2022-09-26T06:14:46.640Z,5.30
2022-09-26T06:23:17.021Z,1.65
2022-09-26T06:27:18.767Z,2.25
2022-09-26T06:31:21.984Z,2.08
2022-09-26T06:35:24.271Z,1.00
2022-09-26T06:39:33.475Z,1.80
2022-09-26T06:43:35.670Z,6.35
2022-09-26T06:47:38.383Z,4.00
2022-09-26T06:51:40.090Z,3.05
2022-09-26T06:55:41.778Z,5.43
2022-09-26T06:59:44.142Z,5.03
2022-09-26T07:03:46.236Z,1.67
2022-09-26T07:07:48.490Z,4.43
2022-09-26T07:12:13.585Z,2.35
2022-09-26T07:16:12.737Z,2.15
2022-09-26T07:20:16.821Z,3.47
2022-09-26T07:24:18.602Z,3.97
2022-09-26T07:28:20.151Z,1.52
2022-09-26T07:32:21.999Z,2.88
2022-09-26T07:36:23.574Z,3.47
2022-09-26T07:40:26.028Z,2.28
2022-09-26T07:45:16.412Z,1.80
2022-09-26T07:49:07.569Z,2.95
2022-09-26T07:53:09.593Z,3.05
2022-09-26T07:57:11.639Z,1.60
2022-09-26T08:01:16.020Z,3.00
2022-09-26T08:05:20.152Z,1.77
2022-09-26T08:13:28.013Z,1.48
2022-09-26T08:17:32.467Z,2.13
2022-09-26T08:21:35.070Z,1.52
2022-09-26T08:25:36.605Z,1.90
2022-09-26T08:29:38.223Z,1.90
2022-09-26T08:33:40.587Z,2.88
2022-09-26T08:37:42.128Z,1.38
2022-09-26T08:42:05.407Z,1.05
2022-09-26T08:46:34.711Z,2.70
2022-09-26T08:50:50.113Z,2.72
2022-09-26T08:54:54.638Z,2.05
2022-09-26T08:58:58.059Z,1.08
2022-09-26T09:03:28.267Z,2.47
2022-09-26T09:07:30.082Z,1.02
2022-09-26T09:11:51.009Z,1.77
2022-09-26T09:16:15.806Z,1.13
2022-09-26T09:20:51.557Z,1.05
2022-09-26T09:24:59.018Z,2.63
2022-09-26T09:29:22.303Z,2.15
2022-09-26T09:33:47.225Z,0.85
2022-09-26T09:37:51.946Z,0.88
2022-09-26T09:41:58.208Z,2.88
2022-09-26T09:46:16.680Z,1.83
2022-09-26T09:50:30.346Z,1.58
2022-09-26T09:55:25.390Z,2.70
2022-09-26T09:59:52.600Z,0.98
2022-09-26T10:04:03.894Z,1.25
2022-09-26T10:08:22.571Z,1.63
2022-09-26T10:12:28.734Z,4.65
2022-09-26T10:20:42.631Z,1.23
2022-09-26T10:24:46.937Z,0.47
2022-09-26T10:28:56.553Z,1.40
2022-09-26T10:33:00.183Z,1.52
2022-09-26T10:37:38.738Z,1.35
2022-09-26T10:41:43.055Z,0.60
2022-09-26T10:45:44.880Z,1.02
2022-09-26T10:49:56.357Z,1.55
2022-09-26T10:54:22.087Z,1.42
2022-09-26T10:58:27.636Z,1.33
2022-09-26T11:02:29.326Z,2.65
2022-09-26T11:06:44.132Z,0.73
2022-09-26T11:10:47.363Z,0.95
2022-09-26T11:14:53.840Z,2.42
2022-09-26T11:19:04.743Z,1.27
2022-09-26T11:23:12.201Z,1.23
2022-09-26T11:27:33.403Z,1.42
2022-09-26T11:31:45.836Z,0.88
2022-09-26T11:36:14.603Z,1.33
2022-09-26T11:40:24.683Z,1.25
2022-09-26T11:44:40.917Z,0.93
2022-09-26T11:49:29.986Z,1.02
2022-09-26T11:54:01.058Z,1.83
2022-09-26T11:58:33.282Z,1.33
2022-09-26T12:02:57.394Z,1.25
2022-09-26T12:07:14.157Z,2.42
2022-09-26T12:11:59.816Z,1.15
2022-09-26T12:16:21.887Z,1.40
2022-09-26T12:20:43.871Z,1.33
2022-09-26T12:24:45.459Z,0.93
2022-09-26T12:28:58.907Z,1.48
2022-09-26T12:33:55.397Z,3.35
2022-09-26T12:38:20.655Z,2.03
2022-09-26T12:43:00.435Z,3.50
2022-09-26T12:47:19.476Z,2.38
2022-09-26T12:51:34.313Z,3.25
2022-09-26T12:55:52.883Z,3.67
2022-09-26T13:00:20.124Z,5.38
2022-09-26T13:04:42.465Z,3.33
2022-09-26T13:08:57.254Z,4.93
2022-09-26T13:13:35.907Z,4.32
2022-09-26T13:17:46.036Z,4.43
2022-09-26T13:21:54.227Z,3.95
2022-09-26T13:26:14.150Z,5.47
2022-09-26T13:30:24.300Z,3.40
2022-09-26T13:34:37.506Z,3.80
2022-09-26T13:39:03.300Z,3.92
2022-09-26T13:43:25.511Z,2.90
2022-09-26T13:47:49.089Z,3.63
2022-09-26T13:52:05.387Z,3.50
2022-09-26T14:00:31.317Z,4.22
2022-09-26T14:04:36.778Z,3.58
2022-09-26T14:09:17.523Z,4.95
2022-09-26T14:13:33.215Z,2.72
2022-09-26T14:17:43.867Z,2.53
2022-09-26T14:22:12.951Z,4.30
2022-09-26T14:26:21.093Z,3.63
2022-09-26T14:30:29.682Z,6.40
2022-09-26T14:34:45.778Z,3.13
2022-09-26T14:38:49.376Z,4.35
2022-09-26T14:43:12.366Z,4.88
2022-09-26T14:47:16.193Z,3.50
2022-09-26T14:51:32.127Z,2.78
2022-09-26T14:55:34.299Z,5.75
2022-09-26T14:59:35.782Z,4.55
2022-09-26T15:03:37.766Z,3.50
2022-09-26T15:08:00.456Z,4.28
2022-09-26T15:12:08.872Z,4.45
2022-09-26T15:16:27.792Z,3.92
2022-09-26T15:20:31.961Z,5.03
2022-09-26T15:24:36.606Z,2.72
2022-09-26T15:28:38.678Z,3.08
2022-09-26T15:32:40.401Z,3.92
2022-09-26T15:36:44.108Z,4.55
2022-09-26T15:41:00.138Z,7.05
2022-09-26T15:45:02.003Z,3.40
2022-09-26T15:49:13.975Z,3.53
2022-09-26T15:53:41.764Z,3.88
2022-09-26T15:57:44.891Z,2.47
2022-09-26T16:01:49.990Z,5.82
2022-09-26T16:05:52.666Z,3.93
2022-09-26T16:09:56.025Z,5.22
2022-09-26T16:18:25.324Z,3.60
2022-09-26T16:22:26.814Z,3.65
2022-09-26T16:26:40.328Z,4.00
2022-09-26T16:31:00.305Z,2.70
2022-09-26T16:35:19.493Z,4.28
2022-09-26T16:39:29.367Z,5.03
2022-09-26T16:43:32.354Z,4.60
2022-09-26T16:47:44.266Z,3.75
2022-09-26T16:52:18.780Z,2.22
2022-09-26T16:56:23.369Z,3.60
2022-09-26T17:00:30.300Z,2.20
2022-09-26T17:04:34.455Z,2.22
2022-09-26T17:08:36.026Z,1.60
2022-09-26T17:12:37.956Z,2.47
2022-09-26T17:16:39.597Z,1.80
2022-09-26T17:20:44.644Z,2.28
2022-09-26T17:24:48.193Z,4.10
2022-09-26T17:28:52.796Z,2.08
2022-09-26T17:32:54.814Z,2.17
2022-09-26T17:36:58.212Z,4.20
2022-09-26T17:40:59.921Z,4.43
2022-09-26T17:45:01.572Z,3.47
2022-09-26T17:49:05.354Z,4.50
2022-09-26T17:53:10.014Z,2.88
2022-09-26T17:57:15.068Z,3.75
2022-09-26T18:01:30.154Z,2.72
2022-09-26T18:05:36.333Z,3.70
2022-09-26T18:14:07.499Z,4.90
2022-09-26T18:18:13.926Z,3.95
2022-09-26T18:22:22.807Z,3.65
2022-09-26T18:26:29.277Z,2.28
2022-09-26T18:30:30.838Z,3.15
2022-09-26T18:34:32.493Z,4.38
2022-09-26T18:38:35.365Z,6.13
2022-09-26T18:42:37.953Z,3.10
2022-09-26T18:46:44.274Z,2.75
2022-09-26T18:50:46.056Z,4.40
2022-09-26T18:59:33.291Z,4.05
2022-09-26T19:03:37.858Z,5.55
2022-09-26T19:07:40.371Z,6.07
2022-09-26T19:11:42.660Z,4.72
2022-09-26T19:15:44.270Z,9.93
2022-09-26T19:19:45.806Z,6.97
2022-09-26T19:23:48.081Z,3.78
2022-09-26T19:27:52.771Z,5.38
2022-09-26T19:31:54.627Z,4.78
2022-09-26T19:35:56.381Z,7.20
2022-09-26T19:39:58.257Z,7.57
2022-09-26T19:43:59.850Z,6.05
2022-09-26T19:48:03.099Z,6.65
2022-09-26T19:52:09.199Z,4.07
2022-09-26T19:56:10.841Z,6.75
2022-09-26T20:00:15.436Z,6.07
2022-09-26T20:04:19.021Z,7.15
2022-09-26T20:08:22.809Z,6.88
2022-09-26T20:12:24.524Z,4.78
2022-09-26T20:16:26.718Z,8.05
2022-09-26T20:20:28.645Z,6.00
2022-09-26T20:24:33.243Z,4.97
2022-09-26T20:28:34.780Z,5.45
2022-09-26T20:32:37.160Z,5.38
2022-09-26T20:36:48.723Z,5.68
2022-09-26T20:40:50.598Z,5.75
2022-09-26T20:44:52.229Z,6.95
2022-09-26T20:48:53.885Z,6.97
2022-09-26T20:52:56.266Z,4.75
2022-09-26T20:56:59.019Z,5.18
2022-09-26T21:01:01.157Z,4.88
2022-09-26T21:05:03.383Z,6.22
2022-09-26T21:09:05.019Z,5.65
2022-09-26T21:13:06.559Z,5.85
2022-09-26T21:17:17.561Z,4.97
2022-09-26T21:21:25.390Z,5.25
2022-09-26T21:25:30.958Z,9.13
2022-09-26T21:29:32.751Z,5.18
2022-09-26T21:33:34.320Z,6.97
2022-09-26T21:37:36.054Z,5.30
2022-09-26T21:41:37.700Z,5.05
2022-09-26T21:45:44.335Z,8.95
2022-09-26T21:49:46.410Z,3.47
2022-09-26T21:53:56.424Z,2.50
2022-09-26T21:58:02.421Z,4.20
2022-09-26T22:06:07.494Z,5.00
2022-09-26T22:10:09.679Z,3.42
2022-09-26T22:14:11.323Z,4.70
2022-09-26T22:18:12.864Z,3.78
2022-09-26T22:22:17.215Z,3.47
2022-09-26T22:26:19.739Z,3.80
2022-09-26T22:30:21.412Z,3.78
2022-09-26T22:34:22.974Z,3.28
2022-09-26T22:38:24.651Z,4.13
2022-09-26T22:42:26.172Z,4.25
2022-09-26T22:46:27.820Z,4.75
2022-09-26T22:50:29.864Z,3.13
2022-09-26T22:54:31.450Z,3.45
2022-09-26T22:58:36.793Z,3.05
2022-09-26T23:02:38.652Z,5.30
2022-09-26T23:06:40.281Z,3.25
2022-09-26T23:10:48.740Z,3.65
2022-09-26T23:14:50.281Z,3.25
2022-09-26T23:18:52.270Z,4.20
2022-09-26T23:22:53.830Z,2.60
2022-09-26T23:26:57.820Z,3.22
2022-09-26T23:31:10.436Z,4.32
2022-09-26T23:35:12.289Z,2.85
2022-09-26T23:39:13.944Z,5.72
2022-09-26T23:43:15.796Z,2.53
2022-09-26T23:47:17.434Z,2.85
2022-09-26T23:51:19.053Z,4.80
2022-09-26T23:55:20.602Z,3.92
2022-09-26T23:59:22.151Z,3.60
